East Dorset, Vermont
Current Conditions -  °F | °C
As of 7:55 PM on Wednesday 17 Dec 2014 (Local Time) from KRUT Reporting Station
Overcast Overcast  
Wind Chill: 33°   Ceiling: 1400
Heat Index: 37°   Visibility: 9mi
Dew Point: 34°   Wind: 6mph
Humidity: 87%   Direction: 240°WSW
Pressure: 29.77"   Gusts: NA
Location:  43.24°N, 73.01°W
Report Text: KRUT 180055Z 24005KT 9SM BKN014 OVC023 03/01 A2977 RMK AO1
Loading
Personal Weather Stations






























Interactive Weather Map New forecast layout! Learn more

10-Day Weather Forecast

Advertisements
Track Severe Weather on mobile